Time;durP1;ratioP1;P1;durP2;ratioP2;P2;SDS_P1;SDS_P2;PMS_P1;PMS_P2;Temp;Humidity;BMP_temperature;BMP_pressure;BME280_temperature;BME280_humidity;BME280_pressure;Samples;Min_cycle;Max_cycle;Signal;HPM_P1;HPM_P2
2023/12/02 00:00:47;;;;;;;25.30;12.68;;;;;;;-1.37;100.00;95890.94;5051507;28;20055;-63
2023/12/02 00:03:13;;;;;;;23.67;13.07;;;;;;;-1.55;100.00;95878.38;5043977;28;20052;-63
2023/12/02 00:05:40;;;;;;;26.45;15.25;;;;;;;-1.69;100.00;95890.91;5030059;28;20466;-63
2023/12/02 00:08:06;;;;;;;25.92;14.00;;;;;;;-1.68;100.00;95889.88;5040986;28;20037;-62
2023/12/02 00:10:33;;;;;;;24.13;13.73;;;;;;;-1.62;100.00;95893.53;5042335;28;20037;-63
2023/12/02 00:12:59;;;;;;;24.98;13.55;;;;;;;-1.61;100.00;95895.16;5043648;28;20687;-63
2023/12/02 00:15:26;;;;;;;25.15;12.98;;;;;;;-1.53;100.00;95896.75;5042698;28;20597;-63
2023/12/02 00:17:53;;;;;;;26.35;13.32;;;;;;;-1.59;100.00;95890.44;5042592;28;20095;-62
2023/12/02 00:20:20;;;;;;;21.92;13.43;;;;;;;-1.64;100.00;95888.44;5042949;28;20050;-63
2023/12/02 00:22:47;;;;;;;28.77;14.57;;;;;;;-1.64;100.00;95891.09;5035980;28;20048;-63
2023/12/02 00:25:13;;;;;;;21.15;11.68;;;;;;;-1.68;100.00;95887.22;5046014;28;20067;-64
2023/12/02 00:27:40;;;;;;;29.38;14.82;;;;;;;-1.77;100.00;95891.16;5042353;28;20052;-63
2023/12/02 00:30:07;;;;;;;24.35;13.10;;;;;;;-1.78;100.00;95885.00;5050142;28;20048;-64
2023/12/02 00:32:33;;;;;;;26.48;12.82;;;;;;;-1.71;100.00;95888.47;5055301;28;20112;-64
2023/12/02 00:35:00;;;;;;;23.52;12.10;;;;;;;-1.80;100.00;95903.00;5043444;28;20152;-63
2023/12/02 00:37:27;;;;;;;26.50;13.68;;;;;;;-1.85;100.00;95908.09;5044336;28;20515;-64
2023/12/02 00:39:53;;;;;;;25.00;13.27;;;;;;;-1.76;100.00;95908.69;5043314;28;20044;-64
2023/12/02 00:42:20;;;;;;;24.50;11.85;;;;;;;-1.70;100.00;95908.66;5043891;28;20048;-64
2023/12/02 00:44:46;;;;;;;26.10;13.55;;;;;;;-1.68;100.00;95913.78;5040835;28;20041;-64
2023/12/02 00:47:13;;;;;;;23.50;11.45;;;;;;;-1.78;100.00;95922.16;5047639;28;20041;-64
2023/12/02 00:49:40;;;;;;;23.58;12.60;;;;;;;-1.86;100.00;95925.88;5039886;28;20049;-63
2023/12/02 00:52:07;;;;;;;23.65;11.50;;;;;;;-1.75;100.00;95923.59;5033762;28;20041;-63
2023/12/02 00:54:35;;;;;;;22.33;12.13;;;;;;;-1.85;100.00;95924.84;5037193;28;20033;-63
2023/12/02 00:57:02;;;;;;;22.63;11.80;;;;;;;-1.75;100.00;95929.72;5053791;28;20048;-63
2023/12/02 00:59:29;;;;;;;22.90;12.55;;;;;;;-1.98;100.00;95933.63;5046145;28;20041;-64
2023/12/02 01:01:55;;;;;;;22.88;11.23;;;;;;;-1.91;100.00;95932.81;5038418;28;20448;-64
2023/12/02 01:04:22;;;;;;;22.00;12.02;;;;;;;-1.84;100.00;95928.31;5043899;28;20049;-64
2023/12/02 01:06:48;;;;;;;23.92;12.82;;;;;;;-1.90;100.00;95929.97;5040600;28;20056;-63
2023/12/02 01:09:15;;;;;;;25.27;12.98;;;;;;;-1.77;100.00;95923.78;5051895;28;20032;-63
2023/12/02 01:11:41;;;;;;;24.45;13.00;;;;;;;-1.88;100.00;95911.19;5043154;28;20041;-64
2023/12/02 01:14:08;;;;;;;24.90;12.82;;;;;;;-1.97;100.00;95924.69;5052792;28;20195;-64
2023/12/02 01:16:35;;;;;;;22.13;12.82;;;;;;;-1.95;100.00;95935.09;5036735;28;20033;-63
2023/12/02 01:19:01;;;;;;;25.35;13.43;;;;;;;-1.94;100.00;95942.00;5043950;28;20055;-63
2023/12/02 01:21:28;;;;;;;26.77;13.95;;;;;;;-1.89;100.00;95930.75;5027551;28;20045;-62
2023/12/02 01:23:55;;;;;;;21.90;12.30;;;;;;;-1.87;100.00;95934.03;5037379;28;20552;-64
2023/12/02 01:26:21;;;;;;;22.13;11.75;;;;;;;-1.84;100.00;95928.31;5049622;28;20083;-63
2023/12/02 01:28:48;;;;;;;23.25;11.52;;;;;;;-1.94;100.00;95922.63;5035689;28;20039;-63
2023/12/02 01:31:14;;;;;;;25.85;12.80;;;;;;;-2.02;100.00;95932.44;5048160;28;20056;-63
2023/12/02 01:33:41;;;;;;;23.70;12.23;;;;;;;-2.06;100.00;95936.53;5037744;28;20164;-64
2023/12/02 01:36:12;;;;;;;22.95;11.40;;;;;;;-2.10;100.00;95951.22;5034878;28;20099;-63
2023/12/02 01:38:38;;;;;;;25.42;11.57;;;;;;;-2.04;100.00;95958.34;5045934;28;20037;-63
2023/12/02 01:41:05;;;;;;;22.30;11.90;;;;;;;-2.04;100.00;95955.69;5055045;28;20043;-64
2023/12/02 01:43:32;;;;;;;21.17;11.00;;;;;;;-1.98;100.00;95954.84;5051990;28;20040;-63
2023/12/02 01:45:58;;;;;;;19.42;11.40;;;;;;;-1.93;100.00;95950.78;5047562;28;20068;-64
2023/12/02 01:48:30;;;;;;;20.65;11.32;;;;;;;-1.87;100.00;95955.25;5045944;28;20636;-63
2023/12/02 01:50:56;;;;;;;23.73;11.52;;;;;;;-1.87;100.00;95948.13;5047840;28;20676;-63
2023/12/02 01:53:23;;;;;;;21.33;10.93;;;;;;;-1.81;100.00;95943.81;5050440;28;20052;-64
2023/12/02 01:55:51;;;;;;;20.10;11.30;;;;;;;-1.78;100.00;95950.53;5043365;28;20052;-62
2023/12/02 01:58:19;;;;;;;18.05;9.90;;;;;;;-1.80;100.00;95956.06;5040977;28;20041;-63
2023/12/02 02:00:45;;;;;;;22.10;10.82;;;;;;;-1.96;100.00;95955.47;5041650;28;20048;-63
2023/12/02 02:03:12;;;;;;;18.48;9.75;;;;;;;-1.97;100.00;95961.00;5040989;28;20120;-63
2023/12/02 02:05:38;;;;;;;18.70;11.00;;;;;;;-1.99;100.00;95960.41;5042855;28;20044;-63
2023/12/02 02:08:05;;;;;;;21.90;10.30;;;;;;;-2.04;100.00;95958.34;5048113;28;20036;-63
2023/12/02 02:10:32;;;;;;;21.05;11.52;;;;;;;-2.06;100.00;95963.06;5029854;28;20036;-63
2023/12/02 02:12:58;;;;;;;19.15;10.25;;;;;;;-2.08;100.00;95970.41;5028086;28;20500;-63
2023/12/02 02:15:25;;;;;;;22.77;11.90;;;;;;;-2.11;100.00;95968.16;5040416;28;20500;-63
2023/12/02 02:17:51;;;;;;;18.52;11.15;;;;;;;-2.03;100.00;95972.44;5036383;28;20041;-63
2023/12/02 02:20:18;;;;;;;19.17;10.90;;;;;;;-2.04;100.00;95968.13;5033567;28;20116;-64
2023/12/02 02:22:44;;;;;;;19.55;10.88;;;;;;;-1.96;100.00;95975.88;5051227;28;20420;-64
2023/12/02 02:25:11;;;;;;;19.17;10.63;;;;;;;-2.07;100.00;95964.06;5053073;28;20036;-63
2023/12/02 02:27:37;;;;;;;18.45;10.18;;;;;;;-2.13;100.00;95964.91;5041719;28;20056;-64
2023/12/02 02:30:05;;;;;;;20.42;10.82;;;;;;;-2.12;100.00;95964.69;5045342;28;20493;-64
2023/12/02 02:32:31;;;;;;;19.27;10.73;;;;;;;-2.06;100.00;95964.88;5038509;28;20111;-64
2023/12/02 02:34:58;;;;;;;17.48;9.80;;;;;;;-2.00;100.00;95967.53;5032107;28;20060;-62
2023/12/02 02:37:24;;;;;;;18.98;10.77;;;;;;;-2.05;100.00;95970.00;5031407;28;20047;-64
2023/12/02 02:39:51;;;;;;;17.58;10.50;;;;;;;-2.04;100.00;95970.78;5043188;28;20043;-63
2023/12/02 02:42:18;;;;;;;16.90;9.70;;;;;;;-2.04;100.00;95966.31;5047615;28;20037;-64
2023/12/02 02:44:44;;;;;;;17.30;10.48;;;;;;;-2.12;100.00;95963.88;5045311;28;20044;-63
2023/12/02 02:47:11;;;;;;;20.90;11.13;;;;;;;-2.25;100.00;95970.03;5042480;28;20052;-64
2023/12/02 02:49:37;;;;;;;19.08;11.32;;;;;;;-2.31;100.00;95974.31;5047697;28;20412;-62
2023/12/02 02:52:04;;;;;;;18.67;11.05;;;;;;;-2.41;100.00;95981.81;5049555;28;20032;-63
2023/12/02 02:54:30;;;;;;;21.85;12.20;;;;;;;-2.44;100.00;95982.25;5045504;28;20049;-63
2023/12/02 02:56:57;;;;;;;21.85;11.32;;;;;;;-2.43;100.00;95989.19;5046995;28;20397;-63
2023/12/02 02:59:23;;;;;;;21.67;11.23;;;;;;;-2.43;100.00;95983.88;5048769;28;20086;-62
2023/12/02 03:01:50;;;;;;;20.73;11.95;;;;;;;-2.40;100.00;95984.28;5044473;28;20693;-63
2023/12/02 03:04:16;;;;;;;25.15;11.90;;;;;;;-2.40;100.00;95986.13;5055216;28;20036;-62
2023/12/02 03:06:43;;;;;;;22.80;11.80;;;;;;;-2.39;100.00;95985.09;5046043;28;20106;-64
2023/12/02 03:09:12;;;;;;;22.65;11.88;;;;;;;-2.45;100.00;95986.72;5038734;28;20112;-64
2023/12/02 03:11:38;;;;;;;20.77;10.60;;;;;;;-2.51;100.00;95980.41;5041659;28;20087;-63
2023/12/02 03:14:05;;;;;;;18.92;9.40;;;;;;;-2.50;100.00;95987.31;5054231;28;20049;-63
2023/12/02 03:16:32;;;;;;;22.52;11.32;;;;;;;-2.43;100.00;95989.97;5048876;28;20041;-64
2023/12/02 03:19:00;;;;;;;22.15;11.18;;;;;;;-2.31;100.00;95990.22;5057539;28;20048;-63
2023/12/02 03:21:27;;;;;;;21.42;11.73;;;;;;;-2.38;100.00;95984.09;5054482;28;20111;-64
2023/12/02 03:23:53;;;;;;;19.67;11.30;;;;;;;-2.47;100.00;95993.25;5047486;28;20067;-64
2023/12/02 03:26:20;;;;;;;23.33;12.32;;;;;;;-2.52;100.00;95997.34;5044866;28;20140;-64
2023/12/02 03:28:46;;;;;;;19.73;10.88;;;;;;;-2.41;100.00;95995.09;5050597;28;20106;-64
2023/12/02 03:31:13;;;;;;;19.25;11.32;;;;;;;-2.38;100.00;96000.00;5058623;28;20048;-64
2023/12/02 03:33:39;;;;;;;20.50;11.07;;;;;;;-2.35;100.00;96002.25;5048414;28;20046;-64
2023/12/02 03:36:06;;;;;;;19.33;10.75;;;;;;;-2.29;100.00;95996.09;5046146;28;20044;-63
2023/12/02 03:38:33;;;;;;;18.23;10.52;;;;;;;-2.35;100.00;95997.72;5039847;28;20403;-63
2023/12/02 03:41:02;;;;;;;20.83;11.02;;;;;;;-2.28;100.00;95995.06;5036376;28;20546;-63
2023/12/02 03:43:28;;;;;;;17.25;8.88;;;;;;;-2.23;100.00;95997.97;5052997;28;20050;-64
2023/12/02 03:45:55;;;;;;;19.23;11.38;;;;;;;-2.16;100.00;95994.47;5058247;28;20037;-63
2023/12/02 03:48:22;;;;;;;15.88;9.23;;;;;;;-2.22;100.00;95985.50;5041122;28;20041;-63
2023/12/02 03:50:49;;;;;;;16.55;9.30;;;;;;;-2.26;100.00;95990.41;5049767;28;20063;-63
2023/12/02 03:53:15;;;;;;;17.45;9.90;;;;;;;-2.33;100.00;95992.22;5049081;28;20051;-63
2023/12/02 03:55:42;;;;;;;17.45;9.80;;;;;;;-2.33;100.00;96010.00;5057601;28;20080;-63
2023/12/02 03:58:09;;;;;;;17.20;9.18;;;;;;;-2.37;100.00;96012.22;5046765;28;20068;-63
2023/12/02 04:00:35;;;;;;;18.63;10.20;;;;;;;-2.39;100.00;96014.28;5037607;28;20474;-63
2023/12/02 04:03:02;;;;;;;17.90;9.63;;;;;;;-2.39;100.00;96014.28;5054772;28;20135;-63
2023/12/02 04:05:29;;;;;;;18.00;9.57;;;;;;;-2.36;100.00;96019.16;5046556;28;20048;-63
2023/12/02 04:07:55;;;;;;;18.55;9.60;;;;;;;-2.31;100.00;96022.03;5041029;28;20045;-63
2023/12/02 04:10:22;;;;;;;19.65;10.88;;;;;;;-2.38;100.00;96027.31;5054496;28;20037;-64
2023/12/02 04:12:48;;;;;;;20.10;10.57;;;;;;;-2.36;100.00;96021.81;5056336;28;20381;-64
2023/12/02 04:15:15;;;;;;;21.98;11.38;;;;;;;-2.30;100.00;96042.22;5042402;28;20047;-62
2023/12/02 04:17:42;;;;;;;16.70;9.65;;;;;;;-2.32;100.00;96046.88;5040904;28;20060;-64
2023/12/02 04:20:11;;;;;;;17.80;11.02;;;;;;;-2.41;100.00;96040.97;5046950;28;20043;-63
2023/12/02 04:22:38;;;;;;;19.25;10.63;;;;;;;-2.32;100.00;96049.53;5052585;28;20036;-63
2023/12/02 04:25:06;;;;;;;20.08;9.57;;;;;;;-2.27;100.00;96060.38;5041087;28;20051;-64
2023/12/02 04:27:32;;;;;;;18.73;10.23;;;;;;;-2.22;100.00;96055.28;5047984;28;20045;-62
2023/12/02 04:29:59;;;;;;;17.58;9.77;;;;;;;-2.24;100.00;96044.03;5037179;28;20043;-63
2023/12/02 04:32:26;;;;;;;17.50;9.32;;;;;;;-2.31;100.00;96064.44;5042864;28;20060;-64
2023/12/02 04:34:53;;;;;;;15.82;9.40;;;;;;;-2.31;100.00;96069.75;5043634;28;20073;-63
2023/12/02 04:37:23;;;;;;;14.68;8.23;;;;;;;-2.30;100.00;96068.72;5044135;28;20051;-64
2023/12/02 04:39:53;;;;;;;14.98;9.13;;;;;;;-2.28;100.00;96079.13;5037857;28;20720;-63
2023/12/02 04:42:20;;;;;;;14.07;8.47;;;;;;;-2.39;100.00;96081.34;5046344;28;20044;-64
2023/12/02 04:44:47;;;;;;;14.95;7.90;;;;;;;-2.33;100.00;96085.03;5048648;28;20041;-63
2023/12/02 04:47:14;;;;;;;15.68;8.30;;;;;;;-2.29;100.00;96086.25;5035378;28;20040;-64
2023/12/02 04:49:40;;;;;;;16.92;10.02;;;;;;;-2.31;100.00;96088.31;5044698;28;20044;-64
2023/12/02 04:52:08;;;;;;;16.95;9.32;;;;;;;-2.36;100.00;96090.75;5045343;28;20750;-64
2023/12/02 04:54:34;;;;;;;15.23;8.63;;;;;;;-2.41;100.00;96088.69;5042902;28;20045;-64
2023/12/02 04:57:01;;;;;;;16.13;8.43;;;;;;;-2.44;100.00;96088.28;5047426;28;20064;-64
2023/12/02 04:59:27;;;;;;;15.00;8.10;;;;;;;-2.53;100.00;96098.25;5043735;28;20574;-64
2023/12/02 05:01:55;;;;;;;18.08;10.43;;;;;;;-2.46;100.00;96101.75;5043346;28;20063;-64
2023/12/02 05:04:21;;;;;;;18.73;9.98;;;;;;;-2.59;100.00;96099.84;5042072;28;20047;-64
2023/12/02 05:06:50;;;;;;;17.52;9.88;;;;;;;-2.68;100.00;96109.84;5037720;28;20071;-64
2023/12/02 05:09:17;;;;;;;17.38;9.15;;;;;;;-2.66;100.00;96121.03;5043164;28;20037;-63
2023/12/02 05:11:43;;;;;;;16.02;9.13;;;;;;;-2.66;100.00;96112.28;5046756;28;20736;-63
2023/12/02 05:14:10;;;;;;;17.02;9.45;;;;;;;-2.68;100.00;96115.13;5048319;28;20037;-63
2023/12/02 05:16:41;;;;;;;19.08;10.02;;;;;;;-2.59;100.00;96117.63;5045567;28;20430;-63
2023/12/02 05:19:07;;;;;;;19.17;9.13;;;;;;;-2.66;100.00;96123.69;5040001;28;20496;-63
2023/12/02 05:21:37;;;;;;;18.25;10.90;;;;;;;-2.69;100.00;96118.78;5043487;28;20041;-64
2023/12/02 05:24:04;;;;;;;18.98;9.55;;;;;;;-2.71;100.00;96120.00;5046056;28;20056;-64
2023/12/02 05:26:31;;;;;;;18.73;9.65;;;;;;;-2.67;100.00;96126.53;5043138;28;20052;-64
2023/12/02 05:29:00;;;;;;;17.02;9.55;;;;;;;-2.67;100.00;96137.13;5039565;28;20588;-64
2023/12/02 05:31:27;;;;;;;18.77;9.80;;;;;;;-2.72;100.00;96131.63;5040377;28;20033;-64
2023/12/02 05:33:53;;;;;;;17.33;9.75;;;;;;;-2.65;100.00;96129.81;5038500;28;20041;-64
2023/12/02 05:36:20;;;;;;;15.57;8.90;;;;;;;-2.74;100.00;96126.50;5038397;28;20115;-64
2023/12/02 05:38:46;;;;;;;16.95;8.82;;;;;;;-2.70;100.00;96129.59;5043394;28;20049;-63
2023/12/02 05:41:13;;;;;;;16.05;8.68;;;;;;;-2.78;100.00;96139.34;5042623;28;20520;-63
2023/12/02 05:43:39;;;;;;;19.13;9.73;;;;;;;-2.85;100.00;96146.44;5042907;28;20044;-63
2023/12/02 05:46:06;;;;;;;17.20;8.65;;;;;;;-2.81;100.00;96147.69;5038182;28;20046;-63
2023/12/02 05:48:33;;;;;;;15.73;8.55;;;;;;;-2.85;100.00;96154.38;5030774;28;20075;-63
2023/12/02 05:51:03;;;;;;;14.70;8.48;;;;;;;-2.90;100.00;96165.59;5036788;28;20056;-62
2023/12/02 05:53:31;;;;;;;14.50;8.07;;;;;;;-2.85;100.00;96165.00;5049511;28;20089;-63
2023/12/02 05:55:57;;;;;;;18.10;9.30;;;;;;;-2.81;100.00;96163.59;5035531;28;20049;-63
2023/12/02 05:58:24;;;;;;;15.52;9.52;;;;;;;-2.83;100.00;96170.09;5043090;28;20125;-62
2023/12/02 06:00:51;;;;;;;17.30;9.95;;;;;;;-2.80;100.00;96164.41;5026189;28;20999;-63
2023/12/02 06:03:17;;;;;;;16.70;7.93;;;;;;;-2.81;100.00;96173.34;5043657;28;20041;-64
2023/12/02 06:05:44;;;;;;;15.43;8.23;;;;;;;-2.77;100.00;96175.44;5046945;28;20043;-64
2023/12/02 06:08:11;;;;;;;14.43;8.20;;;;;;;-2.75;100.00;96176.06;5040318;28;20674;-65
2023/12/02 06:10:37;;;;;;;15.55;8.57;;;;;;;-2.72;100.00;96182.78;5041168;28;20087;-64
2023/12/02 06:13:04;;;;;;;17.92;8.23;;;;;;;-2.72;100.00;96190.75;5040168;28;20116;-63
2023/12/02 06:15:30;;;;;;;14.88;8.13;;;;;;;-2.74;100.00;96187.47;5039237;28;20040;-63
2023/12/02 06:17:57;;;;;;;17.80;9.07;;;;;;;-2.70;100.00;96195.84;5040018;28;20086;-63
2023/12/02 06:20:24;;;;;;;16.58;9.05;;;;;;;-2.65;100.00;96185.47;5038210;28;20038;-63
2023/12/02 06:22:52;;;;;;;15.70;8.80;;;;;;;-2.64;100.00;96192.41;5043785;28;20110;-63
2023/12/02 06:25:19;;;;;;;12.95;8.18;;;;;;;-2.62;100.00;96193.00;5039748;28;20051;-63
2023/12/02 06:27:45;;;;;;;14.85;8.02;;;;;;;-2.69;100.00;96192.19;5026625;28;20045;-64
2023/12/02 06:30:17;;;;;;;15.15;7.90;;;;;;;-2.65;100.00;96194.22;5034120;28;20029;-63
2023/12/02 06:32:44;;;;;;;15.32;8.27;;;;;;;-2.58;100.00;96190.81;5037519;28;20106;-63
2023/12/02 06:35:12;;;;;;;13.77;8.20;;;;;;;-2.75;100.00;96191.13;5037276;28;20040;-64
2023/12/02 06:37:38;;;;;;;16.00;8.52;;;;;;;-2.68;100.00;96197.28;5030783;28;20127;-63
2023/12/02 06:40:05;;;;;;;13.90;7.75;;;;;;;-2.76;100.00;96211.50;5037383;28;20045;-64
2023/12/02 06:42:32;;;;;;;16.92;7.88;;;;;;;-2.81;100.00;96210.44;5039171;28;20059;-64
2023/12/02 06:44:58;;;;;;;14.07;8.00;;;;;;;-2.87;100.00;96217.38;5050361;28;20048;-63
2023/12/02 06:47:25;;;;;;;13.63;7.55;;;;;;;-2.94;100.00;96212.03;5041980;28;20041;-64
2023/12/02 06:49:52;;;;;;;13.65;7.55;;;;;;;-3.03;100.00;96219.28;5030516;28;20044;-65
2023/12/02 06:52:18;;;;;;;14.40;7.82;;;;;;;-3.04;100.00;96228.25;5028679;28;20044;-65
2023/12/02 06:54:45;;;;;;;10.82;7.13;;;;;;;-3.11;100.00;96232.69;5038954;28;20127;-63
2023/12/02 06:57:31;;;;;;;13.27;7.43;;;;;;;-3.05;100.00;96239.03;5032127;28;20135;-64
2023/12/02 06:59:58;;;;;;;14.60;7.97;;;;;;;-3.04;100.00;96238.84;5029027;28;20037;-64
2023/12/02 07:02:25;;;;;;;13.45;7.32;;;;;;;-3.15;100.00;96239.38;5026108;28;20038;-64
2023/12/02 07:04:52;;;;;;;13.75;8.05;;;;;;;-3.07;100.00;96247.19;5036561;28;20429;-63
2023/12/02 07:07:18;;;;;;;15.38;7.70;;;;;;;-3.16;100.00;96256.28;5037494;28;20041;-63
2023/12/02 07:09:45;;;;;;;12.48;7.03;;;;;;;-3.17;100.00;96260.75;5031605;28;20589;-64
2023/12/02 07:12:11;;;;;;;13.50;7.07;;;;;;;-3.24;100.00;96261.72;5024777;28;20030;-63
2023/12/02 07:14:38;;;;;;;13.98;7.68;;;;;;;-3.25;100.00;96263.53;5033913;28;20117;-64
2023/12/02 07:17:04;;;;;;;13.38;7.47;;;;;;;-3.24;100.00;96269.66;5042073;28;20045;-64
2023/12/02 07:19:31;;;;;;;14.02;7.90;;;;;;;-3.20;100.00;96274.41;5030373;28;20405;-63
2023/12/02 07:21:57;;;;;;;14.80;8.00;;;;;;;-3.30;100.00;96277.38;5036540;28;20048;-62
2023/12/02 07:24:24;;;;;;;15.00;8.23;;;;;;;-3.23;100.00;96279.22;5049793;28;20055;-64
2023/12/02 07:26:51;;;;;;;18.63;8.95;;;;;;;-3.20;100.00;96278.88;5028777;28;20045;-64
2023/12/02 07:29:17;;;;;;;16.10;9.13;;;;;;;-3.26;100.00;96293.69;5031630;28;20045;-64
2023/12/02 07:31:45;;;;;;;14.48;8.30;;;;;;;-3.22;100.00;96286.16;5032695;28;20667;-64
2023/12/02 07:34:12;;;;;;;14.70;9.02;;;;;;;-3.38;100.00;96285.44;5038385;28;20063;-64
2023/12/02 07:36:38;;;;;;;16.58;9.55;;;;;;;-3.32;100.00;96289.97;5042897;28;20139;-64
2023/12/02 07:39:05;;;;;;;19.30;10.05;;;;;;;-3.31;100.00;96285.50;5036230;28;20599;-64
2023/12/02 07:41:32;;;;;;;17.88;9.68;;;;;;;-3.30;100.00;96292.41;5037682;28;20039;-63
2023/12/02 07:43:58;;;;;;;16.00;9.52;;;;;;;-3.36;100.00;96303.78;5043139;28;20041;-64
2023/12/02 07:46:25;;;;;;;18.05;9.90;;;;;;;-3.40;100.00;96308.63;5030404;28;20041;-64
2023/12/02 07:48:53;;;;;;;15.20;8.68;;;;;;;-3.42;100.00;96313.28;5037499;28;20583;-64
2023/12/02 07:51:20;;;;;;;17.55;9.85;;;;;;;-3.54;100.00;96321.72;5042682;28;20128;-63
2023/12/02 07:53:47;;;;;;;17.40;9.73;;;;;;;-3.57;100.00;96327.38;5034313;28;20040;-64
2023/12/02 07:56:16;;;;;;;15.48;9.27;;;;;;;-3.51;100.00;96333.75;5032634;28;20106;-64
2023/12/02 07:58:42;;;;;;;16.27;9.02;;;;;;;-3.54;100.00;96336.81;5031384;28;20241;-64
2023/12/02 08:01:09;;;;;;;19.60;10.68;;;;;;;-3.58;100.00;96344.28;5032255;28;20041;-64
2023/12/02 08:03:36;;;;;;;16.80;9.48;;;;;;;-3.58;100.00;96352.22;5035287;28;20405;-65
2023/12/02 08:06:02;;;;;;;20.48;11.65;;;;;;;-3.57;100.00;96345.91;5042300;28;20072;-64
2023/12/02 08:08:29;;;;;;;19.02;10.02;;;;;;;-3.50;100.00;96348.66;5044124;28;20040;-64
2023/12/02 08:10:55;;;;;;;16.05;9.75;;;;;;;-3.43;100.00;96351.38;5042458;28;20545;-64
2023/12/02 08:13:23;;;;;;;19.27;9.80;;;;;;;-3.50;100.00;96347.81;5035629;28;20037;-62
2023/12/02 08:15:49;;;;;;;22.65;12.05;;;;;;;-3.57;100.00;96355.69;5040972;28;20663;-64
2023/12/02 08:18:18;;;;;;;18.55;9.85;;;;;;;-3.49;100.00;96355.56;5033021;28;20123;-64
2023/12/02 08:20:46;;;;;;;17.40;9.35;;;;;;;-3.53;100.00;96355.13;5038809;28;20044;-64
2023/12/02 08:23:13;;;;;;;16.35;10.00;;;;;;;-3.42;100.00;96359.09;5036769;28;20120;-64
2023/12/02 08:25:39;;;;;;;15.05;8.88;;;;;;;-3.59;100.00;96362.97;5043365;28;20045;-63
2023/12/02 08:28:06;;;;;;;19.00;9.82;;;;;;;-3.52;100.00;96371.81;5047782;28;20124;-64
2023/12/02 08:30:32;;;;;;;17.83;9.85;;;;;;;-3.49;100.00;96368.81;5043928;28;20037;-62
2023/12/02 08:32:59;;;;;;;21.00;11.45;;;;;;;-3.47;100.00;96382.66;5045439;28;20044;-63
2023/12/02 08:35:25;;;;;;;22.45;14.40;;;;;;;-3.66;100.00;96382.25;5039587;28;20068;-63
2023/12/02 08:37:52;;;;;;;18.88;9.57;;;;;;;-3.56;100.00;96386.44;5030613;28;20041;-63
2023/12/02 08:40:18;;;;;;;20.02;10.68;;;;;;;-3.47;100.00;96387.94;5040658;28;20037;-64
2023/12/02 08:42:45;;;;;;;22.67;13.55;;;;;;;-3.52;100.00;96393.00;5025723;28;20423;-64
2023/12/02 08:45:12;;;;;;;19.65;11.05;;;;;;;-3.31;100.00;96394.84;5038273;28;20048;-63
2023/12/02 08:47:38;;;;;;;19.17;10.82;;;;;;;-3.32;100.00;96390.56;5035671;28;20140;-63
2023/12/02 08:50:06;;;;;;;18.15;10.95;;;;;;;-3.25;100.00;96398.56;5038459;28;20059;-62
2023/12/02 08:52:33;;;;;;;21.80;11.57;;;;;;;-3.24;100.00;96410.00;5036141;28;20037;-63
2023/12/02 08:55:00;;;;;;;21.35;13.38;;;;;;;-3.20;100.00;96414.72;5040279;28;20044;-64
2023/12/02 08:57:26;;;;;;;21.83;13.05;;;;;;;-3.14;100.00;96421.91;5039696;28;20092;-64
2023/12/02 08:59:53;;;;;;;19.35;10.50;;;;;;;-3.09;100.00;96417.88;5036205;28;20037;-64
2023/12/02 09:02:19;;;;;;;18.70;10.70;;;;;;;-3.24;100.00;96428.53;5038485;28;20698;-63
2023/12/02 09:04:46;;;;;;;25.63;13.52;;;;;;;-3.13;100.00;96431.50;5035851;28;20049;-63
2023/12/02 09:07:13;;;;;;;20.63;11.30;;;;;;;-3.31;100.00;96428.44;5031172;28;20037;-64
2023/12/02 09:09:39;;;;;;;19.17;10.75;;;;;;;-3.11;100.00;96441.06;5031390;28;20048;-62
2023/12/02 09:12:06;;;;;;;44.13;21.00;;;;;;;-3.13;100.00;96438.63;5034468;28;20037;-63
2023/12/02 09:14:33;;;;;;;20.55;12.63;;;;;;;-3.21;100.00;96446.69;5046810;28;20056;-64
2023/12/02 09:16:59;;;;;;;26.35;14.07;;;;;;;-3.13;100.00;96444.72;5035881;28;20124;-63
2023/12/02 09:19:48;;;;;;;22.15;12.20;;;;;;;-3.10;100.00;96456.78;5031321;28;20038;-64
2023/12/02 09:22:48;;;;;;;19.50;11.43;;;;;;;-3.18;100.00;96460.38;5037363;28;20041;-64
2023/12/02 09:25:24;;;;;;;27.50;14.98;;;;;;;-3.22;100.00;96472.34;5031090;28;20527;-63
2023/12/02 09:28:11;;;;;;;23.65;14.77;;;;;;;-3.29;100.00;96474.91;5033876;28;20115;-64
2023/12/02 09:30:40;;;;;;;20.67;11.25;;;;;;;-3.30;100.00;96490.97;5024603;28;20103;-63
2023/12/02 09:33:07;;;;;;;21.08;11.50;;;;;;;-3.37;100.00;96493.53;5035174;28;20038;-64
2023/12/02 09:35:34;;;;;;;54.00;25.30;;;;;;;-3.20;100.00;96496.81;5033660;28;20037;-64
2023/12/02 09:38:02;;;;;;;19.02;10.35;;;;;;;-3.34;100.00;96493.19;5037642;28;20042;-65
2023/12/02 09:41:06;;;;;;;33.28;17.95;;;;;;;-3.51;100.00;96497.03;5038194;28;20041;-63
2023/12/02 09:43:40;;;;;;;15.63;9.18;;;;;;;-3.46;100.00;96506.03;5030767;28;20041;-64
2023/12/02 09:46:41;;;;;;;17.88;9.50;;;;;;;-3.34;100.00;96508.22;5030375;28;20084;-63
2023/12/02 09:49:44;;;;;;;20.30;10.95;;;;;;;-3.43;100.00;96510.19;4997168;28;20115;-62
2023/12/02 09:52:35;;;;;;;17.17;9.45;;;;;;;-3.14;100.00;96513.75;5043825;28;20041;-64
2023/12/02 09:55:13;;;;;;;16.52;8.60;;;;;;;-3.20;100.00;96511.88;5033495;28;20048;-64
2023/12/02 09:58:06;;;;;;;39.13;21.70;;;;;;;-3.17;100.00;96506.22;5031909;28;20064;-64
2023/12/02 10:00:37;;;;;;;17.75;9.43;;;;;;;-3.30;100.00;96507.69;5021714;28;20052;-64
2023/12/02 10:03:38;;;;;;;18.83;10.17;;;;;;;-3.40;100.00;96500.03;5037539;28;20041;-63
2023/12/02 10:06:23;;;;;;;19.15;9.52;;;;;;;-3.41;100.00;96498.41;5040441;28;20665;-64
2023/12/02 10:09:09;;;;;;;15.95;9.50;;;;;;;-3.36;100.00;96500.47;5026890;28;20080;-63
2023/12/02 10:11:46;;;;;;;46.22;24.02;;;;;;;-3.23;100.00;96499.81;5031495;28;20108;-63
2023/12/02 10:14:16;;;;;;;15.35;10.07;;;;;;;-3.33;100.00;96508.06;5033340;28;20548;-62
2023/12/02 10:16:47;;;;;;;13.75;8.68;;;;;;;-3.39;100.00;96503.50;5033293;28;20126;-63
2023/12/02 10:19:39;;;;;;;17.10;9.15;;;;;;;-3.08;100.00;96507.75;5035374;28;20041;-64
2023/12/02 10:22:09;;;;;;;16.20;8.52;;;;;;;-3.11;100.00;96504.63;5026808;28;20033;-62
2023/12/02 10:24:47;;;;;;;17.15;9.57;;;;;;;-2.90;100.00;96511.81;5036364;28;20050;-63
2023/12/02 10:27:17;;;;;;;18.17;8.45;;;;;;;-2.96;100.00;96513.38;5036727;28;20047;-63
2023/12/02 10:30:03;;;;;;;14.95;8.15;;;;;;;-3.09;100.00;96515.88;5032441;28;20665;-63
2023/12/02 10:32:38;;;;;;;15.23;8.45;;;;;;;-3.05;100.00;96515.31;5027696;28;20045;-63
2023/12/02 10:35:17;;;;;;;17.55;8.50;;;;;;;-3.24;100.00;96511.44;5039148;28;20111;-64
2023/12/02 10:37:48;;;;;;;19.23;10.88;;;;;;;-2.99;100.00;96516.38;5030951;28;20102;-64
2023/12/02 10:40:22;;;;;;;18.23;10.70;;;;;;;-3.13;100.00;96526.81;5029502;28;20052;-64
2023/12/02 10:43:03;;;;;;;23.58;13.05;;;;;;;-3.27;100.00;96531.13;5028066;28;20034;-63
2023/12/02 10:45:31;;;;;;;17.17;8.30;;;;;;;-3.04;100.00;96534.66;5027772;28;20041;-64
2023/12/02 10:47:59;;;;;;;15.68;8.15;;;;;;;-3.03;100.00;96537.13;5025370;28;20033;-63
2023/12/02 10:50:26;;;;;;;16.17;9.23;;;;;;;-3.05;100.00;96531.22;5031370;28;20052;-63
2023/12/02 10:53:01;;;;;;;13.88;8.30;;;;;;;-3.08;100.00;96542.16;5034273;28;20040;-62
2023/12/02 10:55:31;;;;;;;15.13;8.10;;;;;;;-3.30;100.00;96541.28;5037811;28;20047;-63
2023/12/02 10:57:59;;;;;;;16.02;8.65;;;;;;;-3.23;100.00;96544.00;5022755;28;20045;-63
2023/12/02 11:00:29;;;;;;;14.73;7.65;;;;;;;-3.21;100.00;96550.75;5033559;28;20053;-64
2023/12/02 11:03:26;;;;;;;13.63;7.32;;;;;;;-3.38;100.00;96549.31;5039030;28;20052;-63
2023/12/02 11:06:06;;;;;;;12.57;6.93;;;;;;;-3.46;100.00;96553.69;5032592;28;20036;-64
2023/12/02 11:09:07;;;;;;;14.93;8.18;;;;;;;-3.37;100.00;96551.78;5030462;28;20073;-62
2023/12/02 11:11:47;;;;;;;11.63;7.07;;;;;;;-3.38;100.00;96563.38;5031586;28;20053;-63
2023/12/02 11:14:20;;;;;;;11.73;6.60;;;;;;;-3.25;100.00;96559.28;5037945;28;20061;-62
2023/12/02 11:17:06;;;;;;;12.80;7.10;;;;;;;-3.00;100.00;96559.78;5038034;28;20566;-63
2023/12/02 11:20:15;;;;;;;14.90;8.02;;;;;;;-3.21;100.00;96573.78;5037279;28;20048;-64
2023/12/02 11:23:02;;;;;;;13.38;7.47;;;;;;;-3.14;100.00;96585.28;5007159;28;20045;-63